Time;durP1;ratioP1;P1;durP2;ratioP2;P2;SDS_P1;SDS_P2;PMS_P1;PMS_P2;Temp;Humidity;BMP_temperature;BMP_pressure;BME280_temperature;BME280_humidity;BME280_pressure;Samples;Min_cycle;Max_cycle;Signal;HPM_P1;HPM_P2
2023/06/12 00:01:46;;;;;;;10.17;7.23;;;20.10;59.30;;;;;;5047291;28;20638;-73
2023/06/12 00:04:12;;;;;;;10.57;7.13;;;20.00;59.60;;;;;;5042960;28;20192;-72
2023/06/12 00:06:38;;;;;;;7.83;6.50;;;20.00;59.70;;;;;;5045600;28;20590;-73
2023/06/12 00:09:06;;;;;;;8.30;6.57;;;19.90;59.90;;;;;;5043863;28;20205;-72
2023/06/12 00:11:32;;;;;;;8.97;7.00;;;19.90;60.00;;;;;;5041544;28;20252;-72
2023/06/12 00:13:58;;;;;;;8.13;6.40;;;19.90;60.10;;;;;;5037346;28;21009;-74
2023/06/12 00:16:24;;;;;;;9.13;6.30;;;19.90;60.30;;;;;;5048592;28;20197;-72
2023/06/12 00:18:51;;;;;;;9.00;6.40;;;19.80;60.60;;;;;;5044868;28;20423;-74
2023/06/12 00:21:19;;;;;;;9.57;7.10;;;19.90;60.30;;;;;;5050083;28;20858;-71
2023/06/12 00:23:45;;;;;;;10.20;6.60;;;19.90;60.00;;;;;;5048902;28;20924;-73
2023/06/12 00:26:11;;;;;;;8.50;6.80;;;19.80;60.10;;;;;;5049755;28;20456;-71
2023/06/12 00:28:37;;;;;;;8.70;6.73;;;19.80;60.30;;;;;;5044295;28;20431;-73
2023/06/12 00:31:02;;;;;;;15.60;6.60;;;19.80;60.30;;;;;;5045982;28;20604;-70
2023/06/12 00:33:28;;;;;;;8.63;6.30;;;19.80;60.30;;;;;;5051442;28;20191;-72
2023/06/12 00:35:53;;;;;;;11.70;7.53;;;19.70;60.30;;;;;;5049557;28;20559;-71
2023/06/12 00:38:21;;;;;;;8.23;6.33;;;19.70;60.70;;;;;;5037148;28;20210;-73
2023/06/12 00:40:46;;;;;;;8.60;6.60;;;19.70;60.90;;;;;;5042786;28;20716;-73
2023/06/12 00:43:12;;;;;;;12.67;6.90;;;19.60;60.70;;;;;;5046269;28;20541;-72
2023/06/12 00:45:38;;;;;;;10.00;6.90;;;19.60;61.00;;;;;;5041522;28;20304;-73
2023/06/12 00:48:05;;;;;;;8.63;6.63;;;19.60;60.90;;;;;;5047847;28;20234;-73
2023/06/12 00:50:31;;;;;;;8.73;6.40;;;19.60;61.30;;;;;;5047750;28;20181;-71
2023/06/12 00:52:59;;;;;;;9.30;6.40;;;19.60;61.20;;;;;;5047687;28;20489;-73
2023/06/12 00:55:26;;;;;;;10.90;6.70;;;19.60;61.00;;;;;;5032340;28;20423;-71
2023/06/12 00:57:52;;;;;;;11.00;6.93;;;19.50;61.60;;;;;;5048442;28;20431;-71
2023/06/12 01:00:19;;;;;;;11.70;6.57;;;19.50;61.60;;;;;;5043910;28;20478;-72
2023/06/12 01:02:54;;;;;;;8.40;6.53;;;19.50;61.50;;;;;;5045570;28;20299;-74
2023/06/12 01:05:32;;;;;;;8.10;6.17;;;19.50;61.50;;;;;;5040898;28;20455;-72
2023/06/12 01:08:24;;;;;;;9.90;6.70;;;19.50;61.50;;;;;;5045910;28;20422;-73
2023/06/12 01:10:59;;;;;;;8.60;6.27;;;19.50;61.60;;;;;;5024687;28;20426;-74
2023/06/12 01:13:25;;;;;;;10.40;6.37;;;19.50;61.70;;;;;;5042471;28;20536;-72
2023/06/12 01:15:51;;;;;;;9.00;6.73;;;19.50;61.90;;;;;;5046937;28;20424;-71
2023/06/12 01:18:20;;;;;;;9.43;7.17;;;19.50;61.90;;;;;;5043867;28;20438;-73
2023/06/12 01:20:46;;;;;;;10.13;6.80;;;19.40;62.20;;;;;;5042561;28;20181;-73
2023/06/12 01:23:15;;;;;;;10.40;7.37;;;19.40;62.30;;;;;;5045672;28;20462;-73
2023/06/12 01:25:56;;;;;;;11.87;7.00;;;19.50;62.20;;;;;;5041390;28;20462;-71
2023/06/12 01:28:40;;;;;;;10.87;7.00;;;19.60;61.90;;;;;;5037963;28;20416;-72
2023/06/12 01:31:31;;;;;;;9.83;6.97;;;19.70;61.60;;;;;;5040727;28;20422;-74
2023/06/12 01:34:03;;;;;;;12.27;7.10;;;19.80;61.30;;;;;;5036178;28;20412;-72
2023/06/12 01:36:36;;;;;;;13.00;8.00;;;19.80;61.30;;;;;;5044244;28;20983;-72
2023/06/12 01:39:04;;;;;;;8.67;6.50;;;19.90;61.30;;;;;;5042420;28;20508;-72
2023/06/12 01:41:30;;;;;;;12.60;7.07;;;19.90;61.30;;;;;;5043445;28;20471;-73
2023/06/12 01:43:56;;;;;;;11.70;6.87;;;19.90;61.30;;;;;;5040618;28;20975;-73
2023/06/12 01:46:21;;;;;;;14.10;7.47;;;19.90;61.50;;;;;;5030721;28;20469;-72
2023/06/12 01:48:47;;;;;;;9.67;7.07;;;19.80;61.60;;;;;;5030040;28;20487;-71
2023/06/12 01:51:12;;;;;;;10.57;7.07;;;19.80;61.60;;;;;;5039012;28;20204;-72
2023/06/12 01:53:39;;;;;;;9.07;6.83;;;19.80;61.70;;;;;;5041662;28;20246;-73
2023/06/12 01:56:05;;;;;;;11.40;6.90;;;19.80;61.90;;;;;;5042607;28;20201;-74
2023/06/12 01:58:30;;;;;;;12.50;7.00;;;19.80;62.00;;;;;;5039941;28;20437;-71
2023/06/12 02:00:57;;;;;;;10.17;7.17;;;19.80;62.20;;;;;;5044518;28;20423;-72
2023/06/12 02:03:22;;;;;;;9.37;7.07;;;19.70;62.50;;;;;;5046269;28;20189;-74
2023/06/12 02:05:49;;;;;;;9.27;7.10;;;19.80;62.50;;;;;;5042450;28;21052;-72
2023/06/12 02:08:14;;;;;;;11.73;7.50;;;19.70;62.60;;;;;;5042108;28;20182;-71
2023/06/12 02:10:40;;;;;;;8.90;6.80;;;19.60;62.90;;;;;;5046606;28;20498;-71
2023/06/12 02:13:05;;;;;;;10.37;6.97;;;19.60;62.80;;;;;;5046418;28;20239;-72
2023/06/12 02:15:31;;;;;;;12.97;6.40;;;19.60;63.10;;;;;;5036817;28;20245;-73
2023/06/12 02:17:57;;;;;;;10.43;7.33;;;19.60;63.20;;;;;;5039792;28;20545;-72
2023/06/12 02:20:22;;;;;;;8.57;6.90;;;19.50;63.50;;;;;;5047519;28;20559;-73
2023/06/12 02:22:48;;;;;;;10.30;6.73;;;19.40;63.80;;;;;;5026390;28;20224;-71
2023/06/12 02:25:13;;;;;;;10.30;6.70;;;19.30;64.20;;;;;;5052641;28;20650;-72
2023/06/12 02:27:39;;;;;;;13.37;7.07;;;19.20;64.70;;;;;;5052329;28;20671;-72
2023/06/12 02:30:05;;;;;;;15.00;7.60;;;19.20;64.80;;;;;;5039697;28;20192;-73
2023/06/12 02:32:33;;;;;;;10.07;6.33;;;19.10;65.10;;;;;;5030603;28;20221;-72
2023/06/12 02:35:00;;;;;;;8.43;6.63;;;19.00;65.30;;;;;;5050929;28;20435;-72
2023/06/12 02:37:27;;;;;;;8.83;6.93;;;19.00;65.60;;;;;;5052475;28;20599;-70
2023/06/12 02:39:53;;;;;;;7.67;6.60;;;18.90;65.80;;;;;;5039996;28;20480;-72
2023/06/12 02:42:19;;;;;;;12.73;7.30;;;18.80;66.30;;;;;;5048594;28;20462;-72
2023/06/12 02:44:45;;;;;;;8.60;6.90;;;18.70;66.60;;;;;;5037434;28;20441;-72
2023/06/12 02:47:11;;;;;;;10.17;6.80;;;18.60;66.70;;;;;;5049508;28;20273;-70
2023/06/12 02:49:38;;;;;;;10.70;6.80;;;18.50;67.20;;;;;;5042562;28;20425;-74
2023/06/12 02:52:04;;;;;;;10.77;7.10;;;18.40;67.50;;;;;;5047610;28;20659;-71
2023/06/12 02:54:30;;;;;;;10.90;6.97;;;18.30;67.60;;;;;;5040862;28;20422;-72
2023/06/12 02:56:55;;;;;;;10.07;7.23;;;18.30;67.90;;;;;;5043303;28;20795;-73
2023/06/12 02:59:23;;;;;;;8.97;6.70;;;18.20;68.00;;;;;;5040344;28;20265;-72
2023/06/12 03:01:49;;;;;;;10.70;7.10;;;18.20;68.30;;;;;;5033553;28;20220;-72
2023/06/12 03:04:20;;;;;;;8.87;6.27;;;18.10;68.50;;;;;;5049128;28;20474;-74
2023/06/12 03:06:47;;;;;;;10.90;6.80;;;18.10;68.80;;;;;;5045075;28;20540;-72
2023/06/12 03:09:15;;;;;;;13.20;7.23;;;18.00;68.90;;;;;;5049825;28;20433;-71
2023/06/12 03:11:41;;;;;;;9.33;6.60;;;18.00;69.20;;;;;;5047855;28;20461;-72
2023/06/12 03:14:07;;;;;;;8.90;6.30;;;17.90;69.20;;;;;;5058276;28;20430;-72
2023/06/12 03:16:33;;;;;;;10.70;7.20;;;17.90;69.50;;;;;;5048235;28;20824;-72
2023/06/12 03:18:59;;;;;;;9.93;6.93;;;17.90;69.50;;;;;;5044490;28;20439;-71
2023/06/12 03:21:24;;;;;;;8.10;6.43;;;17.80;69.70;;;;;;5040085;28;20489;-71
2023/06/12 03:23:51;;;;;;;10.13;6.40;;;17.80;69.80;;;;;;5046964;28;20194;-71
2023/06/12 03:26:16;;;;;;;9.73;6.83;;;17.80;69.80;;;;;;5042956;28;20256;-71
2023/06/12 03:28:44;;;;;;;11.43;7.20;;;17.80;69.90;;;;;;5048965;28;20938;-70
2023/06/12 03:31:10;;;;;;;11.07;7.00;;;17.80;69.90;;;;;;5039587;28;20670;-72
2023/06/12 03:33:36;;;;;;;9.80;6.87;;;17.80;69.90;;;;;;5028538;28;20429;-72
2023/06/12 03:36:01;;;;;;;10.17;7.00;;;17.70;70.10;;;;;;5046124;28;20512;-71
2023/06/12 03:38:27;;;;;;;10.03;6.63;;;17.60;70.40;;;;;;5032478;28;20193;-72
2023/06/12 03:40:53;;;;;;;9.00;6.60;;;17.60;70.40;;;;;;5040174;28;20197;-71
2023/06/12 03:43:18;;;;;;;11.47;7.70;;;17.60;70.40;;;;;;5041268;28;20217;-72
2023/06/12 03:45:44;;;;;;;10.40;7.07;;;17.60;70.50;;;;;;5039790;28;20280;-74
2023/06/12 03:48:10;;;;;;;10.53;8.07;;;17.60;70.50;;;;;;5045123;28;20186;-71
2023/06/12 03:50:36;;;;;;;11.37;7.87;;;17.70;70.40;;;;;;5044245;28;20280;-71
2023/06/12 03:53:02;;;;;;;11.43;7.80;;;17.60;70.50;;;;;;5044384;28;21224;-72
2023/06/12 03:55:28;;;;;;;12.60;7.87;;;17.60;70.70;;;;;;5046322;28;20519;-71
2023/06/12 03:57:53;;;;;;;10.40;7.30;;;17.70;70.40;;;;;;5047538;28;20214;-71
2023/06/12 04:00:20;;;;;;;10.63;7.00;;;17.70;70.50;;;;;;5020559;28;20452;-73
2023/06/12 04:02:46;;;;;;;10.40;7.40;;;17.70;70.50;;;;;;5047123;28;20661;-71
2023/06/12 04:05:12;;;;;;;9.37;6.53;;;17.80;70.50;;;;;;5044010;28;20499;-72
2023/06/12 04:07:38;;;;;;;10.10;6.97;;;17.80;70.50;;;;;;5046239;28;21086;-74
2023/06/12 04:10:05;;;;;;;9.00;7.27;;;17.70;70.50;;;;;;5044023;28;20239;-72
2023/06/12 04:12:30;;;;;;;11.97;7.70;;;17.70;70.50;;;;;;5019784;28;20491;-72
2023/06/12 04:14:56;;;;;;;11.53;7.40;;;17.70;70.70;;;;;;5042032;28;20430;-73
2023/06/12 04:17:23;;;;;;;11.20;7.40;;;17.70;70.70;;;;;;5037731;28;20190;-73
2023/06/12 04:19:49;;;;;;;9.57;6.93;;;17.70;70.70;;;;;;5044041;28;20434;-72
2023/06/12 04:22:16;;;;;;;8.93;6.90;;;17.70;70.70;;;;;;5045328;28;20497;-73
2023/06/12 04:24:43;;;;;;;14.13;8.30;;;17.70;70.70;;;;;;5051964;28;20438;-71
2023/06/12 04:27:13;;;;;;;11.53;7.43;;;17.80;70.70;;;;;;5029596;28;20478;-72
2023/06/12 04:29:40;;;;;;;10.70;7.30;;;17.80;70.70;;;;;;5043899;28;20440;-73
2023/06/12 04:32:06;;;;;;;13.50;7.60;;;17.90;70.70;;;;;;5042803;28;20481;-72
2023/06/12 04:34:39;;;;;;;12.33;7.90;;;17.90;70.70;;;;;;5040819;28;20429;-73
2023/06/12 04:37:08;;;;;;;10.07;7.50;;;17.90;70.50;;;;;;5037291;28;20415;-75
2023/06/12 04:39:35;;;;;;;11.90;7.60;;;18.00;70.70;;;;;;5048625;28;20923;-74
2023/06/12 04:42:01;;;;;;;10.63;7.30;;;18.00;70.70;;;;;;5039721;28;20461;-74
2023/06/12 04:44:30;;;;;;;12.27;9.00;;;18.10;70.50;;;;;;5043022;28;20435;-72
2023/06/12 04:47:00;;;;;;;10.30;7.30;;;18.10;70.20;;;;;;5046180;28;20220;-72
2023/06/12 04:49:26;;;;;;;12.40;7.83;;;18.20;70.50;;;;;;5046129;28;20453;-71
2023/06/12 04:51:51;;;;;;;11.77;7.00;;;18.30;70.50;;;;;;5042648;28;20489;-72
2023/06/12 04:54:19;;;;;;;14.20;8.43;;;18.40;70.40;;;;;;5050623;28;20789;-72
2023/06/12 04:56:48;;;;;;;11.53;8.17;;;18.40;70.40;;;;;;5032002;28;20189;-73
2023/06/12 04:59:16;;;;;;;13.50;8.10;;;18.50;70.20;;;;;;5045385;28;20416;-73
2023/06/12 05:01:44;;;;;;;13.73;7.80;;;18.60;70.20;;;;;;5041486;28;20534;-71
2023/06/12 05:04:10;;;;;;;11.80;7.70;;;18.60;70.10;;;;;;5050573;28;20433;-72
2023/06/12 05:06:37;;;;;;;10.40;7.90;;;18.70;69.90;;;;;;5047427;28;21044;-73
2023/06/12 05:09:06;;;;;;;11.23;8.27;;;18.70;69.90;;;;;;5046223;28;20213;-73
2023/06/12 05:11:31;;;;;;;11.73;7.47;;;18.80;69.90;;;;;;5028557;28;20550;-70
2023/06/12 05:13:57;;;;;;;9.90;7.30;;;18.80;69.90;;;;;;5046561;28;20507;-73
2023/06/12 05:16:22;;;;;;;12.60;9.03;;;18.80;69.70;;;;;;5048455;28;20202;-71
2023/06/12 05:18:48;;;;;;;13.30;8.90;;;18.90;69.40;;;;;;5029143;28;20194;-73
2023/06/12 05:21:14;;;;;;;10.87;8.17;;;19.00;69.20;;;;;;5040074;28;20561;-71
2023/06/12 05:23:40;;;;;;;12.53;8.17;;;19.10;69.10;;;;;;5035567;28;20205;-71
2023/06/12 05:26:05;;;;;;;12.03;7.53;;;19.20;68.60;;;;;;5044927;28;20507;-74
2023/06/12 05:28:31;;;;;;;12.90;8.77;;;19.40;68.20;;;;;;5042380;28;20434;-72
2023/06/12 05:30:57;;;;;;;11.30;8.87;;;19.50;67.90;;;;;;5042232;28;20731;-73
2023/06/12 05:33:22;;;;;;;11.33;8.70;;;19.50;67.50;;;;;;5039713;28;20215;-71
2023/06/12 05:35:49;;;;;;;12.00;9.33;;;19.40;67.60;;;;;;5050427;28;20196;-72
2023/06/12 05:38:15;;;;;;;12.80;8.70;;;19.50;67.70;;;;;;5044949;28;20813;-73
2023/06/12 05:40:41;;;;;;;13.50;8.70;;;19.40;67.90;;;;;;5048517;28;21116;-71
2023/06/12 05:43:06;;;;;;;11.43;8.10;;;19.30;68.00;;;;;;5036468;28;20459;-71
2023/06/12 05:45:32;;;;;;;14.20;8.30;;;19.40;67.70;;;;;;5043370;28;20676;-72
2023/06/12 05:47:57;;;;;;;12.63;8.60;;;19.50;67.20;;;;;;5047775;28;20180;-72
2023/06/12 05:50:23;;;;;;;12.40;8.37;;;19.50;67.20;;;;;;5044618;28;20198;-72
2023/06/12 05:52:49;;;;;;;13.00;8.67;;;19.30;68.00;;;;;;5041069;28;20282;-72
2023/06/12 05:55:17;;;;;;;16.43;9.27;;;19.30;67.90;;;;;;5046326;28;20252;-72
2023/06/12 05:57:42;;;;;;;15.63;8.40;;;19.20;68.20;;;;;;5045478;28;20867;-71
2023/06/12 06:00:10;;;;;;;10.43;7.90;;;19.40;67.90;;;;;;5046524;28;20529;-72
2023/06/12 06:02:37;;;;;;;14.40;9.37;;;19.60;67.50;;;;;;5044517;28;20204;-74
2023/06/12 06:05:02;;;;;;;13.33;9.30;;;19.70;66.90;;;;;;5042841;28;20989;-71
2023/06/12 06:07:28;;;;;;;13.63;9.60;;;19.80;66.70;;;;;;5044012;28;20554;-71
2023/06/12 06:09:54;;;;;;;15.60;9.23;;;19.80;66.90;;;;;;5044255;28;20197;-72
2023/06/12 06:12:20;;;;;;;10.40;8.50;;;19.80;66.90;;;;;;5049009;28;20466;-74
2023/06/12 06:14:45;;;;;;;12.47;9.23;;;19.90;66.70;;;;;;5047907;28;20673;-73
2023/06/12 06:17:11;;;;;;;12.10;8.33;;;20.10;66.40;;;;;;5050305;28;20189;-73
2023/06/12 06:19:36;;;;;;;12.80;9.23;;;20.20;66.00;;;;;;5051370;28;20185;-71
2023/06/12 06:22:04;;;;;;;12.20;8.07;;;20.30;65.80;;;;;;5044065;28;20952;-72
2023/06/12 06:24:30;;;;;;;13.43;9.03;;;20.40;65.80;;;;;;5050296;28;20186;-71
2023/06/12 06:26:55;;;;;;;12.50;8.73;;;20.50;65.70;;;;;;5049557;28;20459;-74
2023/06/12 06:29:21;;;;;;;12.40;8.50;;;20.60;65.60;;;;;;5041351;28;20183;-73
2023/06/12 06:31:47;;;;;;;12.33;9.10;;;20.50;65.60;;;;;;5039698;28;20198;-71
2023/06/12 06:34:13;;;;;;;12.90;8.90;;;20.70;65.60;;;;;;5044970;28;20179;-73
2023/06/12 06:36:39;;;;;;;16.37;9.60;;;20.80;65.40;;;;;;5045662;28;20183;-72
2023/06/12 06:39:05;;;;;;;14.97;8.67;;;20.90;65.30;;;;;;5043768;28;20766;-73
2023/06/12 06:41:31;;;;;;;14.83;9.10;;;21.00;65.00;;;;;;5043326;28;20226;-74
2023/06/12 06:43:56;;;;;;;14.63;10.33;;;21.10;65.00;;;;;;5042093;28;20425;-72
2023/06/12 06:46:22;;;;;;;10.10;8.27;;;21.10;64.50;;;;;;5044453;28;20210;-71
2023/06/12 06:48:47;;;;;;;10.23;7.60;;;21.10;64.70;;;;;;5035510;28;20662;-72
2023/06/12 06:51:13;;;;;;;15.47;8.90;;;21.20;64.20;;;;;;5043466;28;20676;-72
2023/06/12 06:53:38;;;;;;;11.97;8.67;;;21.40;63.40;;;;;;5049824;28;20594;-73
2023/06/12 06:56:04;;;;;;;14.37;8.07;;;21.50;62.90;;;;;;5040679;28;20209;-72
2023/06/12 06:58:30;;;;;;;12.80;8.60;;;21.60;62.50;;;;;;5046406;28;20278;-73
2023/06/12 07:00:55;;;;;;;10.53;7.57;;;21.70;61.90;;;;;;5040046;28;20180;-72
2023/06/12 07:03:21;;;;;;;13.17;8.93;;;21.80;62.00;;;;;;5044048;28;20288;-71
2023/06/12 07:05:47;;;;;;;12.57;8.10;;;21.90;61.30;;;;;;5043622;28;20211;-71
2023/06/12 07:08:12;;;;;;;12.13;8.47;;;21.90;61.00;;;;;;5040717;28;20240;-72
2023/06/12 07:10:38;;;;;;;12.87;8.80;;;21.80;61.20;;;;;;5045825;28;20242;-71
2023/06/12 07:13:03;;;;;;;12.00;8.77;;;21.80;61.30;;;;;;5048206;28;20199;-72
2023/06/12 07:15:29;;;;;;;11.10;7.23;;;21.90;61.50;;;;;;5045420;28;20204;-71
2023/06/12 07:17:55;;;;;;;11.90;8.93;;;22.00;61.50;;;;;;5047863;28;20573;-72
2023/06/12 07:20:20;;;;;;;12.83;9.20;;;22.10;61.20;;;;;;5055658;28;20256;-72
2023/06/12 07:22:46;;;;;;;10.70;7.60;;;22.10;60.70;;;;;;5051363;28;20235;-71
2023/06/12 07:25:11;;;;;;;11.40;7.77;;;22.10;60.70;;;;;;5052084;28;20654;-73
2023/06/12 07:27:37;;;;;;;12.93;8.97;;;22.20;61.00;;;;;;5050872;28;20323;-72
2023/06/12 07:30:05;;;;;;;11.90;8.20;;;22.20;60.30;;;;;;5045099;28;20211;-72
2023/06/12 07:32:31;;;;;;;13.87;8.60;;;22.20;60.40;;;;;;5043656;28;20676;-73
2023/06/12 07:34:56;;;;;;;17.13;9.10;;;22.40;60.90;;;;;;5046585;28;20430;-73
2023/06/12 07:37:22;;;;;;;12.80;8.67;;;22.40;60.70;;;;;;5044415;28;20214;-72
2023/06/12 07:39:48;;;;;;;11.60;7.70;;;22.40;60.10;;;;;;5044028;28;20191;-73
2023/06/12 07:42:14;;;;;;;13.60;7.80;;;22.50;59.70;;;;;;5044252;28;20499;-72
2023/06/12 07:44:40;;;;;;;11.70;7.77;;;22.50;59.90;;;;;;5022562;28;20536;-71
2023/06/12 07:47:06;;;;;;;12.33;7.67;;;22.60;59.90;;;;;;5046997;28;20471;-72
2023/06/12 07:49:32;;;;;;;10.73;7.90;;;22.60;59.30;;;;;;5037449;28;20197;-75
2023/06/12 07:51:58;;;;;;;13.57;7.83;;;22.70;59.60;;;;;;5046511;28;21101;-72
2023/06/12 07:54:23;;;;;;;10.70;7.53;;;22.80;59.20;;;;;;5041484;28;20230;-71
2023/06/12 07:56:51;;;;;;;16.20;8.57;;;22.90;59.20;;;;;;5047944;28;20193;-72
2023/06/12 07:59:18;;;;;;;10.90;7.40;;;22.90;58.10;;;;;;5041758;28;20667;-70
2023/06/12 08:01:43;;;;;;;10.13;7.90;;;22.90;58.00;;;;;;5046865;28;20453;-71
2023/06/12 08:04:09;;;;;;;11.53;8.33;;;22.90;58.20;;;;;;5041944;28;20938;-73
2023/06/12 08:06:35;;;;;;;11.00;7.77;;;23.00;57.30;;;;;;5045323;28;20207;-71
2023/06/12 08:09:05;;;;;;;10.13;8.03;;;23.00;57.60;;;;;;5041777;28;20818;-72
2023/06/12 08:11:30;;;;;;;10.27;7.63;;;23.10;55.80;;;;;;5046557;28;20536;-71
2023/06/12 08:13:56;;;;;;;9.60;7.33;;;23.20;56.00;;;;;;5052151;28;20445;-71
2023/06/12 08:16:24;;;;;;;8.97;7.67;;;23.30;55.20;;;;;;5046025;28;20276;-74
2023/06/12 08:18:51;;;;;;;10.30;7.60;;;23.40;55.20;;;;;;5050659;28;20187;-71
2023/06/12 08:21:16;;;;;;;12.43;8.33;;;23.50;54.80;;;;;;5045756;28;20455;-71
2023/06/12 08:23:42;;;;;;;11.13;6.90;;;23.60;54.40;;;;;;5050623;28;20855;-73
2023/06/12 08:26:08;;;;;;;12.77;7.00;;;23.60;53.70;;;;;;5044108;28;20658;-72
2023/06/12 08:28:35;;;;;;;8.70;6.10;;;23.70;50.60;;;;;;5045383;28;20186;-72
2023/06/12 08:31:01;;;;;;;9.90;6.40;;;23.80;51.40;;;;;;5043351;28;20836;-72
2023/06/12 08:33:30;;;;;;;9.03;7.47;;;23.80;52.40;;;;;;5046813;28;20436;-72
2023/06/12 08:35:58;;;;;;;12.77;8.07;;;23.90;52.90;;;;;;5039702;28;20187;-73
2023/06/12 08:38:23;;;;;;;9.30;8.27;;;24.00;52.80;;;;;;5044784;28;20537;-72
2023/06/12 08:40:53;;;;;;;12.33;8.40;;;23.90;54.60;;;;;;5046875;28;20550;-72
2023/06/12 08:43:18;;;;;;;12.63;8.40;;;23.90;55.60;;;;;;5029561;28;20211;-72
2023/06/12 08:45:47;;;;;;;9.80;7.80;;;23.60;52.90;;;;;;5039520;28;21037;-71
2023/06/12 08:48:17;;;;;;;9.90;7.43;;;23.60;53.00;;;;;;5050571;28;20266;-72
2023/06/12 08:50:46;;;;;;;8.53;7.40;;;23.80;52.00;;;;;;5044187;28;20477;-71
2023/06/12 08:53:12;;;;;;;12.90;8.57;;;24.00;50.70;;;;;;5052392;28;20449;-71
2023/06/12 08:55:42;;;;;;;12.67;7.70;;;24.10;50.10;;;;;;5051746;28;20422;-73
2023/06/12 08:58:09;;;;;;;12.47;8.00;;;24.20;48.60;;;;;;5036946;28;20417;-73
2023/06/12 09:00:35;;;;;;;11.17;7.70;;;24.20;48.90;;;;;;5050379;28;20425;-72
2023/06/12 09:03:04;;;;;;;12.40;7.53;;;24.10;48.30;;;;;;5051550;28;20456;-73
2023/06/12 09:05:34;;;;;;;10.30;7.67;;;24.10;49.50;;;;;;5047578;28;20454;-73
2023/06/12 09:08:02;;;;;;;9.83;8.07;;;24.10;49.50;;;;;;5051035;28;20438;-73
2023/06/12 09:10:29;;;;;;;11.10;7.57;;;24.10;49.80;;;;;;5040961;28;20988;-72
2023/06/12 09:12:55;;;;;;;12.30;7.77;;;24.20;49.30;;;;;;5049755;28;20839;-73
2023/06/12 09:15:22;;;;;;;10.70;8.23;;;24.00;49.40;;;;;;5028312;28;20526;-74
2023/06/12 09:17:53;;;;;;;13.43;7.77;;;24.00;49.10;;;;;;5046664;28;20423;-72
2023/06/12 09:20:24;;;;;;;11.30;7.40;;;24.20;49.10;;;;;;5042377;28;20873;-72
2023/06/12 09:22:53;;;;;;;11.47;7.30;;;24.30;49.00;;;;;;5046826;28;20463;-71
2023/06/12 09:25:20;;;;;;;12.17;7.80;;;24.40;48.10;;;;;;5044638;28;20429;-71
2023/06/12 09:27:47;;;;;;;12.40;8.00;;;24.50;47.70;;;;;;5041131;28;20490;-73
2023/06/12 09:30:13;;;;;;;9.70;7.17;;;24.60;46.60;;;;;;5043223;28;20439;-73
2023/06/12 09:32:45;;;;;;;12.80;8.03;;;24.70;46.60;;;;;;5029321;28;20467;-71
2023/06/12 09:35:12;;;;;;;12.17;7.83;;;24.70;45.90;;;;;;5048915;28;20430;-70
2023/06/12 09:37:39;;;;;;;17.17;8.17;;;24.60;45.40;;;;;;5035022;28;20448;-70
2023/06/12 09:40:14;;;;;;;11.70;7.23;;;24.80;45.50;;;;;;5046852;28;20965;-70
2023/06/12 09:42:40;;;;;;;9.77;7.23;;;24.90;45.40;;;;;;5041105;28;20547;-71
2023/06/12 09:45:17;;;;;;;12.00;7.90;;;25.00;45.50;;;;;;5047681;28;21185;-70
2023/06/12 09:47:45;;;;;;;12.40;8.13;;;25.10;45.10;;;;;;5041329;28;20541;-70
2023/06/12 09:50:12;;;;;;;11.97;7.97;;;24.80;45.50;;;;;;5032686;28;20947;-74
2023/06/12 09:52:40;;;;;;;11.47;7.60;;;24.60;46.20;;;;;;5045260;28;20943;-70
2023/06/12 09:55:08;;;;;;;11.50;8.40;;;24.50;46.30;;;;;;5044332;28;20507;-73
2023/06/12 09:57:37;;;;;;;10.03;7.90;;;24.40;46.60;;;;;;5044768;28;20427;-72
2023/06/12 10:00:11;;;;;;;11.00;7.40;;;24.40;46.30;;;;;;5039741;28;20903;-72
2023/06/12 10:02:41;;;;;;;8.67;6.70;;;24.50;45.80;;;;;;5047293;28;20466;-71
2023/06/12 10:05:24;;;;;;;10.87;8.23;;;24.80;45.10;;;;;;5042944;28;20435;-72
2023/06/12 10:07:54;;;;;;;10.23;7.67;;;24.70;45.70;;;;;;5047535;28;21146;-71
2023/06/12 10:10:22;;;;;;;11.83;7.97;;;24.80;45.90;;;;;;5043512;28;20409;-72
2023/06/12 10:12:50;;;;;;;10.30;7.37;;;25.00;45.10;;;;;;5051968;28;20466;-72
2023/06/12 10:15:16;;;;;;;11.53;7.70;;;25.10;45.10;;;;;;5052050;28;20429;-70
2023/06/12 10:17:42;;;;;;;10.60;8.20;;;24.70;45.30;;;;;;5047622;28;20422;-71
2023/06/12 10:20:10;;;;;;;13.30;7.23;;;24.60;45.80;;;;;;5038629;28;20423;-70
2023/06/12 10:22:40;;;;;;;10.97;7.83;;;25.00;45.30;;;;;;5039319;28;20600;-71
2023/06/12 10:25:08;;;;;;;16.40;8.47;;;25.30;44.90;;;;;;5041250;28;20426;-72
2023/06/12 10:27:36;;;;;;;13.60;8.50;;;25.30;44.50;;;;;;5049308;28;20472;-71
2023/06/12 10:30:03;;;;;;;15.00;8.57;;;25.20;44.30;;;;;;5044871;28;20496;-73
2023/06/12 10:32:31;;;;;;;13.77;8.60;;;25.20;44.10;;;;;;5048982;28;20580;-71
2023/06/12 10:34:58;;;;;;;11.43;8.33;;;25.50;43.40;;;;;;5049019;28;20828;-71
2023/06/12 10:37:23;;;;;;;11.30;7.33;;;25.90;42.80;;;;;;5045092;28;20798;-71
2023/06/12 10:40:16;;;;;;;10.80;7.10;;;26.30;41.80;;;;;;5030157;28;20433;-72
2023/06/12 10:42:54;;;;;;;10.40;7.50;;;26.30;41.10;;;;;;5037829;28;20212;-72
2023/06/12 10:45:23;;;;;;;10.73;8.00;;;26.20;41.20;;;;;;5049096;28;20452;-70
2023/06/12 10:48:04;;;;;;;10.70;7.03;;;26.50;42.20;;;;;;5048839;28;20530;-72
2023/06/12 10:50:31;;;;;;;22.07;8.90;;;27.10;40.30;;;;;;5026709;28;20509;-71
2023/06/12 10:53:01;;;;;;;10.73;6.87;;;27.30;39.50;;;;;;5050193;28;20466;-73
2023/06/12 10:55:26;;;;;;;9.87;7.40;;;27.10;38.30;;;;;;5050202;28;20433;-72
2023/06/12 10:58:13;;;;;;;11.67;7.20;;;27.20;38.40;;;;;;5049677;28;20438;-71
2023/06/12 11:00:51;;;;;;;9.80;7.17;;;27.30;38.60;;;;;;5052578;28;20213;-73
2023/06/12 11:03:30;;;;;;;10.47;7.50;;;26.80;38.60;;;;;;5051046;28;20462;-71
2023/06/12 11:06:08;;;;;;;10.70;6.77;;;26.40;39.60;;;;;;5051327;28;20516;-72
2023/06/12 11:08:34;;;;;;;10.10;7.33;;;26.60;40.40;;;;;;5050127;28;20429;-72
2023/06/12 11:11:05;;;;;;;13.07;7.43;;;27.10;39.80;;;;;;5051701;28;20426;-71
2023/06/12 11:13:31;;;;;;;10.50;7.07;;;27.40;39.00;;;;;;5048281;28;20765;-71
2023/06/12 11:15:56;;;;;;;12.53;7.37;;;27.40;38.00;;;;;;5050680;28;20442;-71
2023/06/12 11:18:22;;;;;;;8.50;6.70;;;27.30;38.70;;;;;;5050266;28;20528;-71
2023/06/12 11:20:53;;;;;;;9.60;7.43;;;27.40;39.40;;;;;;5050864;28;20201;-73
2023/06/12 11:23:25;;;;;;;11.93;7.90;;;27.50;39.00;;;;;;5052141;28;20214;-70
2023/06/12 11:25:55;;;;;;;8.97;7.53;;;27.60;38.60;;;;;;5054177;28;20426;-72
2023/06/12 11:28:23;;;;;;;9.00;6.93;;;27.40;38.80;;;;;;5050968;28;20517;-70
2023/06/12 11:30:50;;;;;;;11.47;7.80;;;27.00;39.20;;;;;;5045420;28;20445;-73
2023/06/12 11:33:17;;;;;;;10.20;7.93;;;26.80;39.60;;;;;;5047800;28;20474;-72
2023/06/12 11:35:44;;;;;;;10.30;8.13;;;27.00;39.60;;;;;;5024742;28;20512;-72
2023/06/12 11:38:23;;;;;;;13.93;7.97;;;27.20;38.40;;;;;;5047841;28;20827;-73
2023/06/12 11:40:53;;;;;;;8.30;7.60;;;27.10;38.20;;;;;;5031898;28;20843;-71
2023/06/12 11:43:22;;;;;;;8.83;6.90;;;27.10;37.60;;;;;;5041609;28;20464;-74
2023/06/12 11:45:49;;;;;;;7.80;6.10;;;27.20;36.60;;;;;;5046366;28;20446;-72
2023/06/12 11:48:17;;;;;;;8.63;6.60;;;27.10;36.00;;;;;;5043830;28;20437;-71
2023/06/12 11:50:47;;;;;;;9.63;7.30;;;27.00;36.30;;;;;;5048651;28;20434;-73
2023/06/12 11:53:14;;;;;;;9.60;6.90;;;26.70;36.70;;;;;;5045612;28;20458;-70
2023/06/12 11:55:40;;;;;;;12.53;7.03;;;26.60;37.60;;;;;;5033014;28;20923;-72
2023/06/12 11:58:06;;;;;;;9.57;6.73;;;27.10;36.20;;;;;;5044473;28;20450;-74
2023/06/12 12:00:35;;;;;;;9.00;6.17;;;27.40;35.60;;;;;;5049766;28;20223;-72
2023/06/12 12:03:04;;;;;;;12.40;7.20;;;27.50;36.60;;;;;;5044090;28;20311;-73
2023/06/12 12:05:35;;;;;;;11.27;6.93;;;27.90;35.20;;;;;;5050527;28;20428;-72
2023/06/12 12:08:03;;;;;;;10.43;7.07;;;27.60;34.80;;;;;;5046518;28;20462;-71
2023/06/12 12:10:30;;;;;;;9.17;7.00;;;27.30;35.50;;;;;;5035509;28;20849;-73
2023/06/12 12:12:59;;;;;;;8.70;6.83;;;27.20;36.70;;;;;;5048529;28;20451;-72
2023/06/12 12:15:26;;;;;;;8.17;6.50;;;28.00;36.00;;;;;;5048807;28;20455;-71
2023/06/12 12:17:53;;;;;;;11.20;7.50;;;28.60;34.00;;;;;;5051817;28;20427;-71
2023/06/12 12:20:23;;;;;;;11.20;8.20;;;28.70;34.10;;;;;;5050544;28;20498;-72
2023/06/12 12:22:53;;;;;;;11.73;7.90;;;28.60;34.50;;;;;;5048269;28;20471;-73
2023/06/12 12:25:21;;;;;;;10.63;7.20;;;28.50;34.30;;;;;;5042388;28;20428;-71
2023/06/12 12:27:49;;;;;;;12.30;7.73;;;27.80;34.90;;;;;;5043768;28;20465;-71
2023/06/12 12:30:16;;;;;;;11.10;7.37;;;28.10;34.50;;;;;;5047060;28;20766;-72
2023/06/12 12:32:46;;;;;;;11.53;6.77;;;28.00;34.90;;;;;;5050273;28;20451;-71
2023/06/12 12:35:13;;;;;;;12.10;7.20;;;28.40;34.30;;;;;;5026129;28;20426;-71
2023/06/12 12:37:39;;;;;;;8.80;7.10;;;28.40;34.00;;;;;;5049509;28;20439;-71
2023/06/12 12:40:09;;;;;;;9.80;7.80;;;28.70;33.60;;;;;;5033273;28;20492;-71